Ana Sayfa
METAR-TAF:

METAR-TAF

Havaalanları :

Bingöl, Türkiye

Bingöl Havalimanı

Enlem: 38-51-40N, Boylam: 40-35-33E, yükseklik: 1063 m

Güncel hava durumu gözlemi

Rapor saat 12:50 UTC de 9 saat ve 38 dakika önce yapıldı.
Rüzgar güney/güneybatıdan 5 kt, güney/güneydoğu ve batı/güneybatı arasında değişken
Sıcaklık 12°C
Nem 44%
Basınç 1010 hPa
Görüş mesafesi 10 km veya daha fazla
3500 ft yükseklikte parçalı bulutlu
9000 ft yükseklikte parçalı çok bulutlu

METAR: LTCU 231250Z 20005KT 160V240 9999 SCT035 BKN090 12/00 Q1010

Saat: 01:28 (22:28 UTC)

Tahmin

Rapor saat 13:40 UTC de 8 saat ve 48 dakika önce yapıldı.
Ayın 23'si saat 15 UTC'den ayın 23'si saat 24 UTC'ye kadar geçerli Tahmin
Rüzgar değişken yönden 2 kt
Görüş mesafesi 10 km veya daha fazla
3500 ft yükseklikte parçalı bulutlu
10000 ft yükseklikte parçalı bulutlu

TAF: LTCU 231340Z 2315/2324 VRB02KT 9999 SCT035 SCT100

4.000'den fazla havaalanı için hava durumu gözlemleri ve tahminleri (METAR ve TAF raporları).

Kullanılabilir istasyonlar harita üzerinde sarı ve kırmızı noktalarla gösterilir.

İstasyonun adını görmek için fareyi noktanın üzerinde gezdirin.

Sonrasında hava gözlem ve tahminlerini görmek için tıklayın.

Haritayı değiştirmek için: yaklaştırmak için siyah artı işaretli yeşil düğmeye ve uzaklaştırmak için de eksi işaretli düğmeye hızla tıklayın; bitişik haritalar için yeşil okları kullanın.


METAR-TAF: